createdAt,value
2022-11-19T00:01:23.218Z,11.60
2022-11-19T00:03:52.888Z,10.60
2022-11-19T00:06:22.775Z,10.90
2022-11-19T00:08:50.073Z,11.20
2022-11-19T00:11:38.536Z,10.50
2022-11-19T00:14:05.696Z,12.67
2022-11-19T00:16:32.603Z,10.63
2022-11-19T00:18:59.636Z,11.60
2022-11-19T00:21:26.320Z,11.10
2022-11-19T00:23:54.534Z,11.23
2022-11-19T00:26:21.877Z,11.40
2022-11-19T00:28:48.748Z,12.13
2022-11-19T00:31:16.765Z,10.57
2022-11-19T00:33:45.164Z,12.80
2022-11-19T00:36:14.526Z,12.27
2022-11-19T00:38:41.785Z,10.97
2022-11-19T00:41:08.666Z,13.27
2022-11-19T00:43:48.258Z,12.00
2022-11-19T00:46:27.153Z,11.67
2022-11-19T00:48:56.120Z,11.47
2022-11-19T00:51:25.208Z,12.00
2022-11-19T00:53:52.269Z,12.30
2022-11-19T00:56:21.603Z,12.27
2022-11-19T00:58:48.396Z,11.30
2022-11-19T01:01:17.093Z,11.63
2022-11-19T01:03:46.088Z,11.13
2022-11-19T01:06:17.830Z,10.23
2022-11-19T01:08:46.957Z,10.97
2022-11-19T01:11:16.582Z,11.97
2022-11-19T01:13:43.373Z,11.00
2022-11-19T01:16:11.812Z,13.10
2022-11-19T01:18:39.619Z,13.37
2022-11-19T01:21:08.560Z,14.43
2022-11-19T01:23:35.448Z,13.33
2022-11-19T01:26:02.856Z,12.90
2022-11-19T01:28:30.364Z,12.67
2022-11-19T01:30:57.503Z,12.40
2022-11-19T01:33:24.338Z,12.97
2022-11-19T01:36:01.960Z,13.03
2022-11-19T01:38:29.991Z,14.40
2022-11-19T01:40:57.666Z,13.63
2022-11-19T01:43:50.474Z,12.73
2022-11-19T01:46:29.119Z,15.00
2022-11-19T01:49:14.573Z,14.27
2022-11-19T01:51:52.275Z,15.70
2022-11-19T01:54:26.279Z,14.70
2022-11-19T01:57:01.485Z,15.50
2022-11-19T01:59:30.188Z,15.57
2022-11-19T02:01:57.515Z,15.83
2022-11-19T02:04:25.678Z,15.60
2022-11-19T02:06:53.627Z,16.63
2022-11-19T02:09:21.472Z,15.43
2022-11-19T02:12:37.808Z,15.97
2022-11-19T02:15:30.062Z,14.93
2022-11-19T02:18:05.955Z,15.60
2022-11-19T02:20:41.393Z,16.27
2022-11-19T02:23:46.231Z,16.53
2022-11-19T02:26:32.141Z,18.40
2022-11-19T02:29:13.881Z,14.97
2022-11-19T02:32:12.645Z,16.50
2022-11-19T02:34:57.998Z,16.03
2022-11-19T02:37:45.021Z,17.17
2022-11-19T02:40:26.448Z,15.27
2022-11-19T02:43:00.414Z,14.97
2022-11-19T02:45:30.655Z,16.00
2022-11-19T02:48:03.195Z,17.03
2022-11-19T02:50:42.197Z,16.20
2022-11-19T02:53:09.931Z,14.63
2022-11-19T02:55:38.407Z,15.60
2022-11-19T02:58:36.139Z,16.33
2022-11-19T03:01:24.643Z,15.10
2022-11-19T03:04:11.592Z,18.93
2022-11-19T03:06:39.299Z,17.03
2022-11-19T03:09:06.185Z,17.03
2022-11-19T03:11:33.227Z,16.50
2022-11-19T03:14:33.499Z,18.70
2022-11-19T03:17:15.193Z,15.80
2022-11-19T03:19:53.055Z,18.67
2022-11-19T03:22:33.617Z,19.27
2022-11-19T03:25:28.913Z,20.13
2022-11-19T03:28:03.440Z,18.10
2022-11-19T03:30:31.105Z,18.03
2022-11-19T03:33:08.850Z,18.03
2022-11-19T03:35:43.448Z,19.43
2022-11-19T03:38:16.679Z,19.67
2022-11-19T03:40:45.562Z,19.90
2022-11-19T03:43:17.341Z,20.30
2022-11-19T03:45:47.253Z,20.13
2022-11-19T03:48:16.018Z,22.90
2022-11-19T03:50:51.516Z,21.57
2022-11-19T03:53:19.636Z,22.03
2022-11-19T03:56:01.761Z,20.90
2022-11-19T03:58:29.820Z,19.33
2022-11-19T04:00:56.502Z,21.43
2022-11-19T04:03:23.158Z,19.87
2022-11-19T04:05:49.896Z,21.90
2022-11-19T04:08:16.744Z,19.70
2022-11-19T04:10:43.409Z,22.30
2022-11-19T04:13:10.073Z,21.43
2022-11-19T04:15:36.831Z,23.13
2022-11-19T04:18:03.820Z,22.93
2022-11-19T04:20:31.371Z,22.50
2022-11-19T04:22:58.112Z,21.87
2022-11-19T04:25:24.938Z,20.77
2022-11-19T04:27:52.003Z,21.93
2022-11-19T04:30:18.818Z,22.60
2022-11-19T04:32:45.840Z,23.87
2022-11-19T04:35:14.008Z,22.33
2022-11-19T04:37:40.717Z,22.70
2022-11-19T04:40:08.261Z,22.77
2022-11-19T04:42:35.141Z,21.73
2022-11-19T04:45:01.847Z,23.43
2022-11-19T04:47:28.517Z,23.90
2022-11-19T04:49:55.194Z,24.27
2022-11-19T04:52:21.849Z,22.80
2022-11-19T04:54:48.486Z,24.80
2022-11-19T04:57:15.271Z,22.10
2022-11-19T04:59:41.942Z,24.47
2022-11-19T05:02:08.659Z,24.17
2022-11-19T05:04:35.312Z,22.07
2022-11-19T05:07:02.479Z,21.20
2022-11-19T05:09:29.196Z,22.43
2022-11-19T05:11:56.004Z,22.63
2022-11-19T05:14:24.802Z,22.17
2022-11-19T05:16:55.676Z,23.90
2022-11-19T05:19:22.462Z,23.40
2022-11-19T05:21:49.173Z,20.70
2022-11-19T05:24:15.986Z,22.27
2022-11-19T05:26:42.790Z,22.93
2022-11-19T05:29:09.550Z,23.63
2022-11-19T05:31:36.290Z,22.23
2022-11-19T05:34:03.247Z,21.43
2022-11-19T05:36:29.893Z,23.30
2022-11-19T05:38:56.664Z,23.43
2022-11-19T05:41:23.599Z,23.83
2022-11-19T05:43:50.367Z,22.60
2022-11-19T05:46:17.050Z,21.60
2022-11-19T05:48:43.854Z,21.13
2022-11-19T05:51:15.053Z,23.00
2022-11-19T05:53:42.872Z,21.43
2022-11-19T05:56:10.053Z,21.93
2022-11-19T05:58:36.837Z,23.57
2022-11-19T06:01:04.175Z,20.47
2022-11-19T06:03:31.218Z,23.17
2022-11-19T06:05:57.924Z,22.90
2022-11-19T06:08:24.790Z,21.90
2022-11-19T06:10:51.545Z,24.03
2022-11-19T06:13:18.476Z,22.40
2022-11-19T06:15:45.149Z,22.00
2022-11-19T06:18:11.845Z,23.23
2022-11-19T06:20:38.505Z,21.37
2022-11-19T06:23:05.174Z,21.80
2022-11-19T06:25:32.034Z,22.10
2022-11-19T06:27:58.765Z,22.97
2022-11-19T06:30:25.445Z,20.10
2022-11-19T06:32:52.167Z,21.93
2022-11-19T06:35:18.896Z,20.50
2022-11-19T06:37:45.555Z,22.50
2022-11-19T06:40:15.509Z,20.50
2022-11-19T06:42:42.183Z,20.87
2022-11-19T06:45:11.643Z,23.37
2022-11-19T06:47:40.067Z,19.10
2022-11-19T06:50:08.835Z,21.03
2022-11-19T06:52:36.165Z,19.20
2022-11-19T06:55:02.894Z,20.00
2022-11-19T06:57:29.590Z,18.73
2022-11-19T06:59:56.249Z,18.97
2022-11-19T07:02:22.973Z,21.43
2022-11-19T07:04:49.686Z,18.00
2022-11-19T07:07:16.460Z,16.87
2022-11-19T07:09:43.206Z,18.57
2022-11-19T07:12:10.119Z,21.17
2022-11-19T07:14:36.851Z,18.97
2022-11-19T07:17:04.931Z,17.40
2022-11-19T07:19:31.841Z,18.50
2022-11-19T07:21:58.553Z,17.30
2022-11-19T07:24:25.288Z,17.13
2022-11-19T07:26:51.967Z,17.60
2022-11-19T07:29:19.002Z,17.10
2022-11-19T07:31:50.238Z,19.57
2022-11-19T07:34:17.695Z,17.60
2022-11-19T07:36:45.136Z,16.77
2022-11-19T07:39:12.266Z,18.40
2022-11-19T07:41:57.656Z,17.50
2022-11-19T07:44:24.312Z,16.83
2022-11-19T07:46:51.078Z,17.97
2022-11-19T07:49:18.522Z,15.47
2022-11-19T07:51:45.468Z,18.30
2022-11-19T07:54:14.368Z,17.13
2022-11-19T07:56:41.797Z,15.90
2022-11-19T07:59:08.845Z,16.60
2022-11-19T08:01:35.755Z,16.60
2022-11-19T08:04:04.334Z,16.10
2022-11-19T08:06:33.244Z,16.10
2022-11-19T08:09:00.551Z,17.83
2022-11-19T08:11:27.417Z,16.37
2022-11-19T08:13:54.137Z,16.10
2022-11-19T08:16:39.734Z,16.33
2022-11-19T08:19:09.514Z,16.40
2022-11-19T08:21:39.912Z,16.07
2022-11-19T08:24:07.652Z,16.27
2022-11-19T08:26:34.568Z,14.87
2022-11-19T08:29:01.322Z,14.23
2022-11-19T08:31:28.068Z,14.33
2022-11-19T08:33:54.952Z,15.40
2022-11-19T08:36:21.818Z,15.23
2022-11-19T08:38:48.530Z,13.50
2022-11-19T08:41:33.861Z,13.57
2022-11-19T08:44:02.068Z,14.67
2022-11-19T08:46:28.861Z,16.47
2022-11-19T08:48:55.636Z,16.00
2022-11-19T08:51:22.504Z,15.27
2022-11-19T08:53:52.903Z,14.73
2022-11-19T08:56:20.398Z,13.90
2022-11-19T08:58:47.479Z,13.30
2022-11-19T09:01:16.422Z,12.90
2022-11-19T09:03:43.330Z,13.50
2022-11-19T09:06:10.704Z,11.57
2022-11-19T09:08:37.523Z,13.63
2022-11-19T09:11:13.347Z,15.00
2022-11-19T09:13:40.391Z,13.43
2022-11-19T09:16:08.575Z,14.07
2022-11-19T09:18:39.083Z,14.20
2022-11-19T09:21:07.384Z,12.90
2022-11-19T09:23:34.457Z,13.93
2022-11-19T09:26:07.039Z,12.93
2022-11-19T09:28:33.976Z,14.80
2022-11-19T09:31:07.926Z,13.73
2022-11-19T09:33:36.510Z,14.03
2022-11-19T09:36:03.500Z,13.77
2022-11-19T09:38:35.151Z,12.37
2022-11-19T09:41:29.059Z,14.03
2022-11-19T09:44:11.631Z,12.83
2022-11-19T09:46:41.399Z,11.97
2022-11-19T09:49:16.459Z,13.23
2022-11-19T09:51:50.176Z,11.70
2022-11-19T09:54:19.419Z,12.50
2022-11-19T09:56:47.594Z,14.43
2022-11-19T09:59:35.418Z,11.70
2022-11-19T10:02:20.531Z,11.80
2022-11-19T10:04:48.836Z,12.40
2022-11-19T10:07:27.263Z,12.30
2022-11-19T10:10:12.691Z,12.60
2022-11-19T10:13:11.784Z,12.90
2022-11-19T10:15:53.826Z,11.20
2022-11-19T10:18:26.064Z,13.13
2022-11-19T10:21:09.397Z,12.10
2022-11-19T10:23:45.391Z,12.87
2022-11-19T10:26:22.999Z,12.33
2022-11-19T10:28:56.052Z,11.50
2022-11-19T10:31:34.978Z,14.70
2022-11-19T10:34:27.059Z,11.67
2022-11-19T10:37:02.296Z,14.00
2022-11-19T10:39:38.058Z,10.97
2022-11-19T10:42:23.308Z,12.50
2022-11-19T10:44:59.179Z,13.73
2022-11-19T10:47:56.712Z,12.30
2022-11-19T10:50:25.719Z,12.37
2022-11-19T10:53:29.134Z,12.60
2022-11-19T10:56:03.870Z,10.33
2022-11-19T10:58:37.090Z,12.33
2022-11-19T11:01:22.367Z,11.20
2022-11-19T11:04:15.499Z,10.60
2022-11-19T11:07:02.911Z,12.53
2022-11-19T11:09:39.927Z,11.00
2022-11-19T11:12:44.985Z,10.90
2022-11-19T11:15:17.338Z,11.80
2022-11-19T11:17:46.743Z,9.43
2022-11-19T11:20:17.355Z,11.37
2022-11-19T11:22:49.459Z,11.03
2022-11-19T11:25:27.988Z,10.90
2022-11-19T11:28:15.475Z,12.03
2022-11-19T11:31:02.130Z,11.57
2022-11-19T11:33:34.692Z,10.37
2022-11-19T11:36:14.968Z,10.20
2022-11-19T11:38:47.638Z,10.07
2022-11-19T11:42:03.790Z,10.20
2022-11-19T11:44:20.742Z,10.43
2022-11-19T11:47:00.212Z,11.20
2022-11-19T11:49:35.251Z,11.23
2022-11-19T11:52:17.353Z,10.20
2022-11-19T11:54:59.404Z,11.97
2022-11-19T11:57:27.785Z,11.00
2022-11-19T11:59:54.851Z,13.70
2022-11-19T12:02:32.792Z,12.70
2022-11-19T12:05:16.653Z,14.23
2022-11-19T12:08:04.725Z,12.37
2022-11-19T12:10:40.197Z,11.60
2022-11-19T12:13:38.221Z,11.93
2022-11-19T12:16:38.956Z,12.57
2022-11-19T12:19:24.461Z,11.10
2022-11-19T12:22:00.485Z,11.00
2022-11-19T12:24:41.246Z,11.37
2022-11-19T12:27:24.556Z,11.13
2022-11-19T12:29:54.303Z,10.20
2022-11-19T12:32:45.212Z,12.43
2022-11-19T12:35:18.068Z,11.50
2022-11-19T12:37:44.705Z,12.17
2022-11-19T12:40:20.195Z,10.43
2022-11-19T12:42:55.834Z,10.80
2022-11-19T12:45:47.164Z,11.40
2022-11-19T12:48:48.139Z,10.73
2022-11-19T12:51:35.852Z,10.83
2022-11-19T12:54:15.700Z,10.97
2022-11-19T12:57:07.897Z,11.60
2022-11-19T12:59:41.340Z,10.20
2022-11-19T13:02:19.660Z,10.70
2022-11-19T13:04:54.896Z,11.77
2022-11-19T13:07:33.421Z,9.20
2022-11-19T13:10:14.813Z,11.00
2022-11-19T13:12:45.689Z,10.53
2022-11-19T13:15:30.455Z,11.60
2022-11-19T13:18:01.539Z,11.50
2022-11-19T13:20:40.512Z,10.20
2022-11-19T13:23:12.927Z,11.00
2022-11-19T13:25:44.266Z,10.00
2022-11-19T13:28:27.467Z,10.97
2022-11-19T13:31:01.127Z,10.37
2022-11-19T13:33:59.314Z,10.97
2022-11-19T13:36:41.859Z,11.50
2022-11-19T13:39:23.113Z,9.70
2022-11-19T13:42:10.777Z,9.00
2022-11-19T13:44:41.646Z,10.00
2022-11-19T13:47:12.729Z,10.03
2022-11-19T13:49:44.806Z,9.33
2022-11-19T13:52:25.323Z,11.33
2022-11-19T13:54:52.123Z,11.37
2022-11-19T13:57:34.725Z,9.47
2022-11-19T14:00:24.712Z,10.93
2022-11-19T14:02:59.223Z,9.90
2022-11-19T14:05:41.158Z,10.53
2022-11-19T14:08:19.904Z,10.40
2022-11-19T14:11:08.016Z,10.50
2022-11-19T14:13:42.008Z,11.27
2022-11-19T14:16:46.155Z,11.50
2022-11-19T14:19:35.289Z,11.20
2022-11-19T14:22:54.642Z,10.60
2022-11-19T14:26:07.083Z,11.20
2022-11-19T14:28:54.323Z,12.43
2022-11-19T14:31:21.433Z,11.30
2022-11-19T14:33:48.200Z,10.80
2022-11-19T14:36:39.814Z,12.07
2022-11-19T14:39:15.840Z,14.13
2022-11-19T14:41:45.729Z,11.97
2022-11-19T14:44:26.219Z,13.53
2022-11-19T14:46:53.191Z,11.03
2022-11-19T14:49:37.158Z,9.67
2022-11-19T14:52:17.643Z,9.10
2022-11-19T14:54:45.287Z,9.37
2022-11-19T14:57:31.462Z,9.47
2022-11-19T15:00:15.213Z,9.50
2022-11-19T15:02:48.853Z,11.00
2022-11-19T15:05:43.660Z,12.70
2022-11-19T15:08:19.584Z,10.23
2022-11-19T15:11:02.403Z,11.13
2022-11-19T15:13:37.373Z,11.17
2022-11-19T15:16:26.009Z,11.70
2022-11-19T15:19:05.162Z,11.63
2022-11-19T15:21:56.308Z,10.00
2022-11-19T15:24:50.860Z,9.90
2022-11-19T15:27:38.567Z,12.30
2022-11-19T15:30:19.582Z,10.57
2022-11-19T15:33:15.698Z,9.07
2022-11-19T15:36:22.215Z,9.57
2022-11-19T15:39:09.734Z,10.40
2022-11-19T15:41:40.120Z,10.57
2022-11-19T15:44:13.085Z,9.30
2022-11-19T15:46:46.057Z,8.67
2022-11-19T15:49:24.973Z,8.40
2022-11-19T15:52:06.187Z,8.47
2022-11-19T15:54:35.118Z,9.60
2022-11-19T15:57:16.856Z,9.70
2022-11-19T15:59:52.738Z,11.43
2022-11-19T16:02:26.898Z,7.50
2022-11-19T16:04:53.731Z,7.37
2022-11-19T16:07:26.821Z,7.13
2022-11-19T16:09:54.473Z,7.60
2022-11-19T16:12:44.869Z,8.50
2022-11-19T16:15:40.536Z,8.20
2022-11-19T16:18:19.351Z,8.90
2022-11-19T16:20:52.132Z,8.40
2022-11-19T16:23:21.155Z,8.47
2022-11-19T16:25:48.578Z,10.47
2022-11-19T16:28:19.539Z,9.40
2022-11-19T16:30:53.038Z,10.53
2022-11-19T16:33:22.942Z,9.30
2022-11-19T16:35:53.256Z,9.73
2022-11-19T16:38:28.114Z,9.20
2022-11-19T16:41:15.516Z,12.67
2022-11-19T16:43:44.937Z,9.80
2022-11-19T16:46:18.213Z,10.63
2022-11-19T16:48:50.895Z,10.00
2022-11-19T16:51:36.088Z,7.03
2022-11-19T16:54:04.554Z,7.70
2022-11-19T16:56:49.542Z,9.40
2022-11-19T16:59:23.767Z,9.60
2022-11-19T17:01:59.592Z,8.70
2022-11-19T17:04:31.570Z,10.80
2022-11-19T17:06:59.733Z,9.33
2022-11-19T17:09:33.773Z,10.23
2022-11-19T17:12:18.679Z,8.43
2022-11-19T17:15:00.049Z,9.43
2022-11-19T17:17:44.905Z,26.67
2022-11-19T17:20:30.386Z,43.63
2022-11-19T17:22:57.428Z,30.00
2022-11-19T17:25:24.446Z,25.53
2022-11-19T17:27:55.279Z,15.20
2022-11-19T17:30:27.155Z,14.57
2022-11-19T17:33:00.965Z,14.90
2022-11-19T17:35:32.056Z,12.17
2022-11-19T17:38:00.687Z,11.80
2022-11-19T17:40:27.367Z,13.17
2022-11-19T17:43:12.710Z,13.10
2022-11-19T17:45:39.490Z,11.67
2022-11-19T17:48:21.269Z,11.30
2022-11-19T17:50:48.002Z,13.30
2022-11-19T17:53:14.684Z,8.73
2022-11-19T17:55:42.210Z,11.03
2022-11-19T17:58:09.013Z,9.63
2022-11-19T18:00:35.897Z,9.43
2022-11-19T18:03:03.398Z,8.60
2022-11-19T18:05:34.777Z,9.47
2022-11-19T18:08:01.729Z,8.80
2022-11-19T18:10:28.524Z,8.23
2022-11-19T18:12:55.213Z,9.40
2022-11-19T18:15:22.031Z,9.57
2022-11-19T18:17:48.764Z,9.60
2022-11-19T18:20:15.584Z,9.40
2022-11-19T18:22:42.376Z,9.73
2022-11-19T18:25:17.828Z,8.83
2022-11-19T18:27:45.333Z,9.07
2022-11-19T18:30:12.942Z,10.93
2022-11-19T18:32:39.807Z,11.37
2022-11-19T18:35:15.612Z,8.90
2022-11-19T18:37:42.899Z,9.93
2022-11-19T18:40:10.470Z,9.37
2022-11-19T18:42:37.374Z,10.43
2022-11-19T18:45:05.700Z,11.00
2022-11-19T18:47:32.394Z,9.93
2022-11-19T18:49:59.238Z,11.90
2022-11-19T18:52:26.110Z,10.73
2022-11-19T18:54:52.841Z,12.83
2022-11-19T18:57:19.563Z,13.03
2022-11-19T18:59:46.715Z,10.90
2022-11-19T19:02:13.570Z,14.13
2022-11-19T19:04:40.344Z,13.10
2022-11-19T19:07:07.033Z,12.40
2022-11-19T19:09:33.724Z,11.77
2022-11-19T19:12:18.594Z,11.63
2022-11-19T19:14:47.739Z,9.87
2022-11-19T19:17:15.784Z,11.13
2022-11-19T19:19:42.646Z,9.30
2022-11-19T19:22:09.413Z,8.53
2022-11-19T19:24:36.883Z,10.80
2022-11-19T19:27:04.571Z,11.40
2022-11-19T19:29:31.365Z,9.40
2022-11-19T19:31:58.531Z,9.97
2022-11-19T19:34:25.205Z,10.00
2022-11-19T19:36:53.586Z,9.17
2022-11-19T19:39:20.685Z,10.37
2022-11-19T19:41:49.019Z,10.50
2022-11-19T19:44:15.945Z,11.43
2022-11-19T19:46:42.664Z,9.40
2022-11-19T19:49:09.364Z,10.53
2022-11-19T19:51:36.249Z,11.80
2022-11-19T19:54:03.118Z,9.83
2022-11-19T19:56:32.162Z,9.47
2022-11-19T19:59:00.226Z,9.73
2022-11-19T20:01:30.056Z,9.77
2022-11-19T20:04:01.780Z,9.47
2022-11-19T20:06:29.393Z,10.67
2022-11-19T20:08:56.284Z,12.90
2022-11-19T20:11:25.044Z,11.00
2022-11-19T20:13:53.658Z,12.20
2022-11-19T20:16:23.384Z,10.13
2022-11-19T20:18:51.290Z,11.30
2022-11-19T20:21:26.961Z,17.10
2022-11-19T20:23:54.097Z,12.47
2022-11-19T20:26:23.688Z,11.93
2022-11-19T20:29:10.422Z,12.77
2022-11-19T20:31:37.109Z,16.13
2022-11-19T20:34:04.970Z,15.07
2022-11-19T20:36:35.204Z,14.10
2022-11-19T20:39:02.367Z,14.10
2022-11-19T20:41:48.146Z,14.73
2022-11-19T20:44:22.593Z,13.93
2022-11-19T20:46:52.766Z,12.10
2022-11-19T20:49:22.679Z,11.83
2022-11-19T20:51:50.105Z,12.40
2022-11-19T20:54:17.583Z,13.70
2022-11-19T20:56:44.603Z,11.10
2022-11-19T20:59:12.153Z,15.70
2022-11-19T21:01:39.544Z,14.63
2022-11-19T21:04:07.262Z,15.20
2022-11-19T21:06:34.926Z,12.10
2022-11-19T21:09:01.933Z,13.20
2022-11-19T21:11:28.655Z,15.00
2022-11-19T21:13:55.350Z,11.93
2022-11-19T21:16:24.188Z,12.27
2022-11-19T21:18:51.690Z,14.07
2022-11-19T21:21:20.433Z,16.20
2022-11-19T21:23:47.232Z,13.10
2022-11-19T21:26:17.022Z,13.77
2022-11-19T21:28:46.700Z,15.33
2022-11-19T21:31:15.388Z,13.47
2022-11-19T21:33:42.313Z,15.83
2022-11-19T21:36:09.416Z,14.87
2022-11-19T21:38:36.542Z,12.80
2022-11-19T21:41:04.399Z,12.10
2022-11-19T21:43:31.181Z,12.67
2022-11-19T21:45:58.030Z,17.23
2022-11-19T21:48:25.896Z,13.20
2022-11-19T21:50:53.247Z,18.90
2022-11-19T21:53:19.988Z,14.20
2022-11-19T21:55:47.158Z,13.03
2022-11-19T21:58:15.322Z,14.20
2022-11-19T22:00:43.745Z,14.27
2022-11-19T22:03:10.651Z,13.70
2022-11-19T22:05:37.551Z,13.97
2022-11-19T22:08:04.552Z,12.30
2022-11-19T22:10:31.423Z,13.07
2022-11-19T22:12:59.404Z,12.20
2022-11-19T22:15:26.990Z,12.43
2022-11-19T22:17:54.789Z,14.60
2022-11-19T22:20:23.670Z,14.33
2022-11-19T22:22:50.467Z,12.33
2022-11-19T22:25:18.388Z,12.53
2022-11-19T22:27:45.074Z,15.23
2022-11-19T22:30:12.219Z,14.43
2022-11-19T22:32:38.990Z,12.83
2022-11-19T22:35:06.121Z,13.57
2022-11-19T22:37:33.334Z,12.40
2022-11-19T22:40:00.009Z,12.07
2022-11-19T22:42:26.837Z,13.83
2022-11-19T22:44:53.627Z,13.87
2022-11-19T22:47:20.368Z,15.70
2022-11-19T22:49:47.046Z,13.90
2022-11-19T22:52:15.492Z,12.47
2022-11-19T22:54:42.184Z,12.00
2022-11-19T22:57:09.674Z,12.67
2022-11-19T22:59:36.526Z,14.17
2022-11-19T23:02:03.621Z,15.10
2022-11-19T23:04:30.462Z,12.17
2022-11-19T23:06:57.223Z,14.60
2022-11-19T23:09:24.227Z,14.70
2022-11-19T23:12:10.410Z,15.37
2022-11-19T23:14:37.074Z,12.03
2022-11-19T23:17:03.718Z,15.87
2022-11-19T23:19:30.432Z,12.20
2022-11-19T23:21:57.289Z,15.03
2022-11-19T23:24:23.941Z,13.30
2022-11-19T23:26:50.561Z,14.00
2022-11-19T23:29:17.682Z,12.63
2022-11-19T23:31:44.447Z,12.77
2022-11-19T23:34:11.361Z,14.27
2022-11-19T23:36:39.896Z,15.83
2022-11-19T23:39:10.200Z,12.30
2022-11-19T23:41:36.943Z,14.17
2022-11-19T23:44:03.976Z,12.70
2022-11-19T23:46:33.442Z,11.60
2022-11-19T23:49:01.134Z,12.90
2022-11-19T23:51:38.796Z,12.47
2022-11-19T23:54:06.012Z,10.57
2022-11-19T23:56:35.559Z,12.33
2022-11-19T23:59:04.088Z,12.80
